createdAt,value
2023-04-03T00:01:20.921Z,100998.55
2023-04-03T00:03:48.816Z,100998.80
2023-04-03T00:06:16.851Z,101000.73
2023-04-03T00:08:45.018Z,101005.96
2023-04-03T00:11:12.833Z,101004.82
2023-04-03T00:13:41.048Z,101009.84
2023-04-03T00:16:10.260Z,101005.19
2023-04-03T00:18:39.119Z,101006.67
2023-04-03T00:21:07.738Z,101008.16
2023-04-03T00:23:36.195Z,101012.79
2023-04-03T00:26:04.224Z,101015.27
2023-04-03T00:28:31.916Z,101011.42
2023-04-03T00:30:59.708Z,101012.99
2023-04-03T00:33:27.664Z,101014.76
2023-04-03T00:35:56.106Z,101011.71
2023-04-03T00:38:23.834Z,101013.28
2023-04-03T00:40:51.586Z,101011.14
2023-04-03T00:43:25.241Z,101014.85
2023-04-03T00:45:56.220Z,101018.05
2023-04-03T00:48:32.150Z,101020.02
2023-04-03T00:51:01.400Z,101021.54
2023-04-03T00:53:55.566Z,101027.07
2023-04-03T00:56:27.953Z,101026.14
2023-04-03T00:59:12.874Z,101027.10
2023-04-03T01:01:41.079Z,101030.59
2023-04-03T01:04:30.952Z,101032.84
2023-04-03T01:07:06.798Z,101034.67
2023-04-03T01:09:35.046Z,101037.55
2023-04-03T01:12:21.691Z,101035.72
2023-04-03T01:14:52.643Z,101041.98
2023-04-03T01:17:31.967Z,101045.45
2023-04-03T01:20:12.018Z,101051.67
2023-04-03T01:22:55.480Z,101052.49
2023-04-03T01:25:23.713Z,101052.15
2023-04-03T01:27:51.859Z,101054.89
2023-04-03T01:30:23.974Z,101056.52
2023-04-03T01:32:51.694Z,101057.69
2023-04-03T01:35:19.917Z,101062.66
2023-04-03T01:37:47.642Z,101061.69
2023-04-03T01:40:15.464Z,101065.52
2023-04-03T01:42:43.287Z,101074.19
2023-04-03T01:45:11.148Z,101074.23
2023-04-03T01:47:38.953Z,101076.83
2023-04-03T01:50:07.417Z,101076.40
2023-04-03T01:52:35.685Z,101080.48
2023-04-03T01:55:03.609Z,101084.10
2023-04-03T01:57:32.293Z,101083.79
2023-04-03T01:59:59.987Z,101085.87
2023-04-03T02:02:27.837Z,101086.64
2023-04-03T02:04:55.973Z,101091.12
2023-04-03T02:07:23.696Z,101091.70
2023-04-03T02:09:51.436Z,101094.88
2023-04-03T02:12:19.861Z,101094.86
2023-04-03T02:14:47.902Z,101095.73
2023-04-03T02:17:16.029Z,101097.96
2023-04-03T02:19:43.791Z,101096.65
2023-04-03T02:22:11.534Z,101101.41
2023-04-03T02:24:41.353Z,101102.66
2023-04-03T02:27:09.043Z,101103.77
2023-04-03T02:29:36.868Z,101106.20
2023-04-03T02:32:06.337Z,101107.35
2023-04-03T02:34:34.461Z,101108.41
2023-04-03T02:37:02.392Z,101110.81
2023-04-03T02:39:30.448Z,101113.16
2023-04-03T02:41:58.965Z,101115.03
2023-04-03T02:44:26.957Z,101115.95
2023-04-03T02:46:54.741Z,101114.73
2023-04-03T02:49:22.592Z,101121.92
2023-04-03T02:51:50.274Z,101121.89
2023-04-03T02:54:17.986Z,101121.80
2023-04-03T02:56:49.043Z,101122.58
2023-04-03T02:59:17.037Z,101123.61
2023-04-03T03:01:46.624Z,101121.61
2023-04-03T03:04:14.754Z,101122.39
2023-04-03T03:06:44.748Z,101119.77
2023-04-03T03:09:14.051Z,101119.36
2023-04-03T03:11:44.176Z,101120.27
2023-04-03T03:14:11.988Z,101122.98
2023-04-03T03:16:39.717Z,101123.95
2023-04-03T03:19:07.811Z,101126.17
2023-04-03T03:21:36.073Z,101126.23
2023-04-03T03:24:04.158Z,101128.88
2023-04-03T03:26:31.963Z,101129.05
2023-04-03T03:28:59.700Z,101133.86
2023-04-03T03:31:28.169Z,101132.83
2023-04-03T03:33:56.073Z,101137.10
2023-04-03T03:36:24.077Z,101137.95
2023-04-03T03:38:51.960Z,101134.48
2023-04-03T03:41:19.964Z,101137.98
2023-04-03T03:43:48.564Z,101136.73
2023-04-03T03:46:16.833Z,101137.48
2023-04-03T03:48:45.445Z,101136.95
2023-04-03T03:51:13.339Z,101141.30
2023-04-03T03:53:41.270Z,101140.50
2023-04-03T03:56:11.631Z,101144.73
2023-04-03T03:58:40.267Z,101148.32
2023-04-03T04:01:08.579Z,101149.15
2023-04-03T04:03:41.410Z,101153.11
2023-04-03T04:06:10.549Z,101151.42
2023-04-03T04:08:38.710Z,101153.09
2023-04-03T04:11:08.334Z,101153.06
2023-04-03T04:13:36.365Z,101151.43
2023-04-03T04:16:05.539Z,101155.19
2023-04-03T04:18:34.398Z,101157.67
2023-04-03T04:21:02.422Z,101158.48
2023-04-03T04:23:30.492Z,101160.60
2023-04-03T04:25:59.423Z,101160.67
2023-04-03T04:28:27.970Z,101166.35
2023-04-03T04:30:56.359Z,101169.89
2023-04-03T04:33:24.431Z,101172.70
2023-04-03T04:35:52.957Z,101176.42
2023-04-03T04:38:21.573Z,101182.99
2023-04-03T04:40:50.087Z,101184.00
2023-04-03T04:43:18.200Z,101185.81
2023-04-03T04:45:47.187Z,101187.02
2023-04-03T04:48:15.593Z,101186.29
2023-04-03T04:50:43.394Z,101190.98
2023-04-03T04:53:11.320Z,101194.92
2023-04-03T04:55:39.224Z,101194.85
2023-04-03T04:58:07.614Z,101197.08
2023-04-03T05:00:36.783Z,101201.63
2023-04-03T05:03:04.807Z,101201.45
2023-04-03T05:05:35.309Z,101205.83
2023-04-03T05:08:05.036Z,101203.04
2023-04-03T05:10:33.389Z,101204.46
2023-04-03T05:13:01.137Z,101208.01
2023-04-03T05:15:28.996Z,101209.80
2023-04-03T05:17:57.051Z,101211.17
2023-04-03T05:20:24.959Z,101213.65
2023-04-03T05:22:53.475Z,101218.65
2023-04-03T05:25:21.561Z,101221.45
2023-04-03T05:27:49.542Z,101224.36
2023-04-03T05:30:18.342Z,101223.80
2023-04-03T05:32:46.451Z,101231.83
2023-04-03T05:35:20.663Z,101236.58
2023-04-03T05:37:50.006Z,101231.40
2023-04-03T05:40:19.656Z,101238.62
2023-04-03T05:42:49.170Z,101238.27
2023-04-03T05:45:17.759Z,101236.25
2023-04-03T05:47:45.802Z,101238.05
2023-04-03T05:50:13.970Z,101238.92
2023-04-03T05:52:46.654Z,101239.04
2023-04-03T05:55:14.904Z,101237.36
2023-04-03T05:57:42.730Z,101237.55
2023-04-03T06:00:15.437Z,101237.92
2023-04-03T06:02:44.336Z,101237.10
2023-04-03T06:05:17.171Z,101242.70
2023-04-03T06:07:45.719Z,101239.73
2023-04-03T06:10:14.670Z,101245.95
2023-04-03T06:12:42.765Z,101247.45
2023-04-03T06:15:11.387Z,101247.21
2023-04-03T06:17:40.565Z,101253.48
2023-04-03T06:20:10.530Z,101253.36
2023-04-03T06:22:39.263Z,101256.02
2023-04-03T06:25:07.492Z,101257.34
2023-04-03T06:27:35.456Z,101259.23
2023-04-03T06:30:03.394Z,101258.89
2023-04-03T06:32:31.318Z,101258.71
2023-04-03T06:34:59.412Z,101257.27
2023-04-03T06:37:27.272Z,101260.70
2023-04-03T06:39:55.588Z,101264.50
2023-04-03T06:42:24.360Z,101261.44
2023-04-03T06:45:01.398Z,101271.88
2023-04-03T06:47:29.289Z,101266.71
2023-04-03T06:49:57.423Z,101274.90
2023-04-03T06:52:25.264Z,101280.97
2023-04-03T06:54:58.013Z,101280.42
2023-04-03T06:57:26.210Z,101282.13
2023-04-03T06:59:53.982Z,101277.48
2023-04-03T07:02:22.041Z,101276.09
2023-04-03T07:04:49.902Z,101280.75
2023-04-03T07:07:18.856Z,101283.48
2023-04-03T07:09:49.003Z,101286.30
2023-04-03T07:12:17.148Z,101290.34
2023-04-03T07:14:45.005Z,101293.05
2023-04-03T07:17:12.700Z,101292.51
2023-04-03T07:19:40.387Z,101295.42
2023-04-03T07:22:08.731Z,101294.73
2023-04-03T07:24:36.960Z,101298.07
2023-04-03T07:27:04.710Z,101300.29
2023-04-03T07:29:32.906Z,101303.49
2023-04-03T07:32:00.933Z,101304.98
2023-04-03T07:34:28.912Z,101309.07
2023-04-03T07:36:57.677Z,101311.36
2023-04-03T07:39:25.918Z,101310.70
2023-04-03T07:41:53.741Z,101311.13
2023-04-03T07:44:21.691Z,101318.40
2023-04-03T07:46:49.536Z,101312.98
2023-04-03T07:49:19.183Z,101317.83
2023-04-03T07:51:47.639Z,101317.30
2023-04-03T07:54:16.178Z,101306.52
2023-04-03T07:56:44.008Z,101310.58
2023-04-03T07:59:12.503Z,101303.85
2023-04-03T08:01:40.249Z,101301.90
2023-04-03T08:04:08.156Z,101309.96
2023-04-03T08:06:45.528Z,101303.80
2023-04-03T08:09:18.163Z,101308.27
2023-04-03T08:11:46.836Z,101304.88
2023-04-03T08:14:17.934Z,101306.05
2023-04-03T08:16:47.073Z,101308.36
2023-04-03T08:19:25.507Z,101314.89
2023-04-03T08:21:57.936Z,101312.53
2023-04-03T08:24:26.289Z,101313.45
2023-04-03T08:26:53.980Z,101317.33
2023-04-03T08:29:22.364Z,101318.70
2023-04-03T08:31:51.284Z,101316.26
2023-04-03T08:34:20.417Z,101314.80
2023-04-03T08:36:48.376Z,101310.73
2023-04-03T08:39:16.137Z,101315.38
2023-04-03T08:41:47.343Z,101317.42
2023-04-03T08:44:48.083Z,101317.84
2023-04-03T08:47:29.117Z,101319.19
2023-04-03T08:50:00.461Z,101317.84
2023-04-03T08:52:46.349Z,101318.44
2023-04-03T08:55:28.108Z,101323.27
2023-04-03T08:58:04.432Z,101322.66
2023-04-03T09:00:51.704Z,101324.30
2023-04-03T09:03:21.802Z,101321.46
2023-04-03T09:05:54.593Z,101330.02
2023-04-03T09:08:24.104Z,101326.76
2023-04-03T09:11:16.874Z,101324.29
2023-04-03T09:13:49.746Z,101320.77
2023-04-03T09:16:32.625Z,101315.61
2023-04-03T09:19:21.349Z,101318.48
2023-04-03T09:21:49.251Z,101322.56
2023-04-03T09:24:18.585Z,101316.82
2023-04-03T09:26:49.658Z,101316.72
2023-04-03T09:29:20.578Z,101316.67
2023-04-03T09:31:51.953Z,101320.77
2023-04-03T09:34:32.510Z,101317.55
2023-04-03T09:37:07.114Z,101316.70
2023-04-03T09:39:55.453Z,101316.56
2023-04-03T09:42:25.764Z,101318.06
2023-04-03T09:45:05.922Z,101320.15
2023-04-03T09:47:37.238Z,101320.92
2023-04-03T09:50:25.396Z,101322.18
2023-04-03T09:52:53.208Z,101317.48
2023-04-03T09:55:28.116Z,101322.27
2023-04-03T09:58:04.709Z,101311.61
2023-04-03T10:00:37.194Z,101320.01
2023-04-03T10:03:06.748Z,101327.83
2023-04-03T10:05:36.462Z,101328.89
2023-04-03T10:08:16.299Z,101328.05
2023-04-03T10:10:49.488Z,101326.67
2023-04-03T10:13:25.597Z,101319.56
2023-04-03T10:16:15.966Z,101325.11
2023-04-03T10:18:50.908Z,101327.64
2023-04-03T10:21:41.435Z,101321.08
2023-04-03T10:24:12.167Z,101317.84
2023-04-03T10:26:52.258Z,101328.86
2023-04-03T10:30:08.400Z,101327.18
2023-04-03T10:32:55.007Z,101324.04
2023-04-03T10:35:22.683Z,101325.98
2023-04-03T10:38:09.614Z,101324.21
2023-04-03T10:40:51.871Z,101318.73
2023-04-03T10:43:34.293Z,101318.80
2023-04-03T10:46:16.803Z,101318.86
2023-04-03T10:49:03.570Z,101312.11
2023-04-03T10:51:49.020Z,101302.98
2023-04-03T10:54:30.544Z,101300.13
2023-04-03T10:57:11.960Z,101302.83
2023-04-03T11:00:00.957Z,101303.17
2023-04-03T11:02:43.188Z,101299.05
2023-04-03T11:05:29.358Z,101298.95
2023-04-03T11:08:00.861Z,101300.17
2023-04-03T11:10:37.921Z,101297.10
2023-04-03T11:13:29.177Z,101297.66
2023-04-03T11:15:58.867Z,101304.39
2023-04-03T11:18:46.044Z,101305.29
2023-04-03T11:21:35.790Z,101303.18
2023-04-03T11:24:14.687Z,101301.15
2023-04-03T11:26:43.373Z,101303.20
2023-04-03T11:29:34.120Z,101301.52
2023-04-03T11:32:24.518Z,101304.33
2023-04-03T11:34:57.638Z,101296.48
2023-04-03T11:37:47.268Z,101293.37
2023-04-03T11:40:21.071Z,101287.83
2023-04-03T11:43:01.411Z,101290.42
2023-04-03T11:45:52.146Z,101283.48
2023-04-03T11:48:24.848Z,101286.59
2023-04-03T11:50:53.304Z,101287.16
2023-04-03T11:53:35.542Z,101284.16
2023-04-03T11:56:03.423Z,101286.59
2023-04-03T11:58:35.926Z,101287.92
2023-04-03T12:01:05.630Z,101286.80
2023-04-03T12:03:34.860Z,101289.57
2023-04-03T12:06:06.414Z,101287.26
2023-04-03T12:08:34.234Z,101286.59
2023-04-03T12:11:10.915Z,101285.78
2023-04-03T12:13:58.533Z,101291.48
2023-04-03T12:16:38.363Z,101282.43
2023-04-03T12:19:15.687Z,101281.38
2023-04-03T12:21:49.680Z,101278.88
2023-04-03T12:24:17.595Z,101279.20
2023-04-03T12:26:58.154Z,101282.52
2023-04-03T12:29:41.398Z,101286.18
2023-04-03T12:32:42.754Z,101284.33
2023-04-03T12:35:30.779Z,101280.21
2023-04-03T12:38:11.652Z,101277.30
2023-04-03T12:40:56.261Z,101285.92
2023-04-03T12:43:52.644Z,101281.33
2023-04-03T12:46:23.988Z,101277.45
2023-04-03T12:48:56.454Z,101272.23
2023-04-03T12:51:30.323Z,101276.91
2023-04-03T12:54:03.656Z,101285.10
2023-04-03T12:56:35.233Z,101280.69
2023-04-03T12:59:26.175Z,101282.91
2023-04-03T13:02:03.987Z,101283.13
2023-04-03T13:04:33.349Z,101278.21
2023-04-03T13:07:01.371Z,101278.84
2023-04-03T13:09:31.807Z,101274.04
2023-04-03T13:12:04.606Z,101277.33
2023-04-03T13:14:34.482Z,101275.23
2023-04-03T13:17:15.939Z,101273.76
2023-04-03T13:19:47.050Z,101268.91
2023-04-03T13:22:33.847Z,101276.57
2023-04-03T13:25:07.723Z,101275.63
2023-04-03T13:27:36.189Z,101273.73
2023-04-03T13:30:05.114Z,101270.67
2023-04-03T13:32:33.919Z,101272.84
2023-04-03T13:35:15.461Z,101265.14
2023-04-03T13:37:56.455Z,101267.79
2023-04-03T13:40:27.958Z,101270.16
2023-04-03T13:43:03.420Z,101269.75
2023-04-03T13:45:33.467Z,101266.55
2023-04-03T13:48:23.640Z,101268.39
2023-04-03T13:50:55.425Z,101270.12
2023-04-03T13:53:23.981Z,101270.48
2023-04-03T13:56:05.486Z,101271.84
2023-04-03T13:58:34.572Z,101273.48
2023-04-03T14:01:54.194Z,101272.31
2023-04-03T14:04:28.810Z,101270.55
2023-04-03T14:06:57.464Z,101266.60
2023-04-03T14:09:28.022Z,101271.67
2023-04-03T14:12:01.441Z,101266.69
2023-04-03T14:14:33.187Z,101267.50
2023-04-03T14:17:03.872Z,101270.71
2023-04-03T14:19:34.791Z,101270.77
2023-04-03T14:22:17.870Z,101271.25
2023-04-03T14:24:47.399Z,101269.66
2023-04-03T14:27:21.879Z,101268.52
2023-04-03T14:29:51.607Z,101266.70
2023-04-03T14:32:24.601Z,101265.52
2023-04-03T14:34:54.128Z,101269.02
2023-04-03T14:37:25.674Z,101269.64
2023-04-03T14:39:54.653Z,101271.34
2023-04-03T14:42:31.901Z,101265.97
2023-04-03T14:45:01.481Z,101271.61
2023-04-03T14:47:32.208Z,101265.92
2023-04-03T14:50:02.526Z,101266.12
2023-04-03T14:52:36.820Z,101275.26
2023-04-03T14:55:08.688Z,101274.83
2023-04-03T14:57:36.887Z,101272.18
2023-04-03T15:00:08.191Z,101275.44
2023-04-03T15:02:38.433Z,101278.35
2023-04-03T15:05:09.591Z,101278.46
2023-04-03T15:07:41.149Z,101277.59
2023-04-03T15:10:12.466Z,101276.94
2023-04-03T15:12:40.403Z,101273.02
2023-04-03T15:15:09.139Z,101268.83
2023-04-03T15:17:37.587Z,101271.62
2023-04-03T15:20:17.190Z,101275.23
2023-04-03T15:22:45.071Z,101274.84
2023-04-03T15:25:13.181Z,101276.94
2023-04-03T15:27:44.035Z,101277.74
2023-04-03T15:30:18.324Z,101276.39
2023-04-03T15:32:46.524Z,101273.84
2023-04-03T15:35:14.635Z,101276.12
2023-04-03T15:37:42.865Z,101271.44
2023-04-03T15:40:11.401Z,101275.63
2023-04-03T15:42:40.002Z,101273.92
2023-04-03T15:45:08.866Z,101274.73
2023-04-03T15:47:36.867Z,101278.48
2023-04-03T15:50:07.745Z,101282.15
2023-04-03T15:52:35.729Z,101281.14
2023-04-03T15:55:04.331Z,101278.38
2023-04-03T16:00:05.395Z,101276.05
2023-04-03T16:02:35.167Z,101270.33
2023-04-03T16:05:03.610Z,101271.08
2023-04-03T16:07:31.813Z,101273.42
2023-04-03T16:09:59.749Z,101269.23
2023-04-03T16:12:27.515Z,101269.10
2023-04-03T16:14:55.379Z,101268.89
2023-04-03T16:17:23.712Z,101269.27
2023-04-03T16:19:51.617Z,101273.47
2023-04-03T16:22:19.774Z,101269.75
2023-04-03T16:24:47.515Z,101264.87
2023-04-03T16:27:15.384Z,101271.92
2023-04-03T16:29:43.435Z,101274.59
2023-04-03T16:32:11.353Z,101273.42
2023-04-03T16:34:41.624Z,101273.71
2023-04-03T16:37:10.566Z,101273.47
2023-04-03T16:39:38.463Z,101274.23
2023-04-03T16:42:06.673Z,101276.11
2023-04-03T16:44:34.420Z,101278.77
2023-04-03T16:47:03.035Z,101279.59
2023-04-03T16:49:33.939Z,101285.89
2023-04-03T16:52:03.538Z,101281.60
2023-04-03T16:54:32.777Z,101282.59
2023-04-03T16:57:01.852Z,101282.85
2023-04-03T16:59:29.859Z,101283.35
2023-04-03T17:01:58.148Z,101292.33
2023-04-03T17:04:27.195Z,101295.06
2023-04-03T17:06:56.048Z,101295.65
2023-04-03T17:09:24.122Z,101295.63
2023-04-03T17:11:52.120Z,101295.23
2023-04-03T17:14:19.910Z,101295.27
2023-04-03T17:16:47.714Z,101300.28
2023-04-03T17:19:17.368Z,101299.23
2023-04-03T17:21:46.568Z,101302.41
2023-04-03T17:24:15.489Z,101306.95
2023-04-03T17:26:44.067Z,101309.11
2023-04-03T17:29:12.243Z,101310.58
2023-04-03T17:31:40.133Z,101312.71
2023-04-03T17:34:12.706Z,101314.83
2023-04-03T17:36:41.738Z,101315.26
2023-04-03T17:39:10.114Z,101314.80
2023-04-03T17:41:38.119Z,101315.58
2023-04-03T17:44:07.023Z,101317.60
2023-04-03T17:46:35.536Z,101320.08
2023-04-03T17:49:05.335Z,101320.76
2023-04-03T17:51:36.527Z,101321.50
2023-04-03T17:54:04.264Z,101322.50
2023-04-03T17:56:32.725Z,101322.66
2023-04-03T17:59:00.794Z,101322.76
2023-04-03T18:01:32.457Z,101324.28
2023-04-03T18:04:03.366Z,101323.33
2023-04-03T18:07:02.412Z,101327.03
2023-04-03T18:09:33.345Z,101328.89
2023-04-03T18:12:04.575Z,101333.45
2023-04-03T18:14:35.260Z,101331.91
2023-04-03T18:17:03.729Z,101335.22
2023-04-03T18:19:32.238Z,101337.73
2023-04-03T18:22:04.857Z,101338.80
2023-04-03T18:24:35.484Z,101342.27
2023-04-03T18:27:10.145Z,101340.77
2023-04-03T18:29:40.932Z,101339.05
2023-04-03T18:32:12.127Z,101338.76
2023-04-03T18:34:40.382Z,101340.06
2023-04-03T18:37:08.195Z,101339.56
2023-04-03T18:39:36.194Z,101339.28
2023-04-03T18:42:10.856Z,101341.85
2023-04-03T18:44:41.065Z,101345.46
2023-04-03T18:47:09.528Z,101343.98
2023-04-03T18:49:40.298Z,101343.62
2023-04-03T18:52:08.473Z,101347.52
2023-04-03T18:54:37.402Z,101345.91
2023-04-03T18:57:05.783Z,101342.16
2023-04-03T18:59:34.001Z,101337.86
2023-04-03T19:02:02.144Z,101341.66
2023-04-03T19:04:31.243Z,101340.39
2023-04-03T19:06:59.957Z,101338.83
2023-04-03T19:09:28.267Z,101338.40
2023-04-03T19:11:56.534Z,101338.53
2023-04-03T19:14:24.593Z,101345.10
2023-04-03T19:16:52.859Z,101340.38
2023-04-03T19:19:20.835Z,101341.27
2023-04-03T19:21:48.720Z,101343.46
2023-04-03T19:24:16.852Z,101344.13
2023-04-03T19:26:44.760Z,101346.30
2023-04-03T19:29:12.888Z,101348.44
2023-04-03T19:31:41.028Z,101351.40
2023-04-03T19:34:09.048Z,101351.29
2023-04-03T19:36:37.874Z,101352.56
2023-04-03T19:39:06.098Z,101349.89
2023-04-03T19:41:36.198Z,101351.49
2023-04-03T19:44:07.189Z,101353.48
2023-04-03T19:46:36.538Z,101355.52
2023-04-03T19:49:05.096Z,101354.54
2023-04-03T19:51:33.594Z,101354.73
2023-04-03T19:54:01.435Z,101356.65
2023-04-03T19:56:29.853Z,101357.84
2023-04-03T19:58:57.955Z,101362.02
2023-04-03T20:01:27.847Z,101359.77
2023-04-03T20:03:55.725Z,101357.56
2023-04-03T20:06:24.192Z,101358.02
2023-04-03T20:08:52.180Z,101363.20
2023-04-03T20:11:21.055Z,101358.19
2023-04-03T20:13:53.113Z,101357.30
2023-04-03T20:16:26.038Z,101364.17
2023-04-03T20:18:57.026Z,101360.95
2023-04-03T20:21:30.595Z,101359.86
2023-04-03T20:23:59.742Z,101359.72
2023-04-03T20:26:29.831Z,101357.48
2023-04-03T20:29:00.329Z,101353.00
2023-04-03T20:31:29.710Z,101356.94
2023-04-03T20:33:57.532Z,101352.37
2023-04-03T20:36:28.399Z,101350.04
2023-04-03T20:38:56.321Z,101353.44
2023-04-03T20:41:24.941Z,101357.70
2023-04-03T20:43:53.715Z,101358.80
2023-04-03T20:46:22.945Z,101359.00
2023-04-03T20:48:50.708Z,101359.58
2023-04-03T20:51:20.115Z,101356.48
2023-04-03T20:53:48.385Z,101359.77
2023-04-03T20:56:16.872Z,101359.15
2023-04-03T20:58:46.160Z,101358.52
2023-04-03T21:01:17.169Z,101361.63
2023-04-03T21:03:46.378Z,101359.23
2023-04-03T21:06:52.107Z,101358.86
2023-04-03T21:09:57.510Z,101361.63
2023-04-03T21:13:03.339Z,101362.69
2023-04-03T21:15:49.713Z,101357.20
2023-04-03T21:18:23.585Z,101355.92
2023-04-03T21:20:51.385Z,101357.30
2023-04-03T21:23:20.430Z,101359.77
2023-04-03T21:28:26.829Z,101358.98
2023-04-03T21:30:53.278Z,101364.79
2023-04-03T21:33:19.767Z,101371.39
2023-04-03T21:35:46.303Z,101370.48
2023-04-03T21:38:14.691Z,101371.07
2023-04-03T21:40:41.355Z,101368.23
2023-04-03T21:43:08.067Z,101370.34
2023-04-03T21:45:34.651Z,101369.69
2023-04-03T21:48:03.245Z,101372.91
2023-04-03T21:50:29.631Z,101372.80
2023-04-03T21:52:56.904Z,101372.80
2023-04-03T21:55:23.219Z,101374.30
2023-04-03T21:57:51.807Z,101372.44
2023-04-03T22:00:19.398Z,101375.54
2023-04-03T22:02:46.355Z,101370.30
2023-04-03T22:05:12.789Z,101372.26
2023-04-03T22:07:39.184Z,101370.73
2023-04-03T22:10:05.851Z,101370.95
2023-04-03T22:12:32.160Z,101365.61
2023-04-03T22:14:58.583Z,101366.65
2023-04-03T22:17:25.335Z,101364.78
2023-04-03T22:19:51.758Z,101365.95
2023-04-03T22:22:18.182Z,101366.43
2023-04-03T22:24:44.927Z,101368.89
2023-04-03T22:27:12.342Z,101369.64
2023-04-03T22:29:38.742Z,101368.24
2023-04-03T22:32:05.324Z,101369.48
2023-04-03T22:34:37.608Z,101365.98
2023-04-03T22:37:03.966Z,101365.64
2023-04-03T22:39:30.471Z,101364.11
2023-04-03T22:41:56.775Z,101364.57
2023-04-03T22:44:24.279Z,101365.00
2023-04-03T22:46:52.163Z,101359.19
2023-04-03T22:49:18.802Z,101357.30
2023-04-03T22:51:45.123Z,101360.45
2023-04-03T22:54:11.469Z,101359.70
2023-04-03T22:56:37.965Z,101359.23
2023-04-03T22:59:04.361Z,101359.33
2023-04-03T23:01:30.804Z,101355.46
2023-04-03T23:03:57.500Z,101353.66
2023-04-03T23:06:23.896Z,101351.61
2023-04-03T23:08:50.288Z,101357.41
2023-04-03T23:11:16.589Z,101355.10
2023-04-03T23:13:43.206Z,101356.14
2023-04-03T23:16:09.587Z,101350.20
2023-04-03T23:18:38.931Z,101348.38
2023-04-03T23:21:07.195Z,101349.21
2023-04-03T23:23:33.866Z,101347.00
2023-04-03T23:26:01.803Z,101346.06
2023-04-03T23:28:29.060Z,101348.14
2023-04-03T23:31:03.254Z,101350.05
2023-04-03T23:33:30.819Z,101349.46
2023-04-03T23:35:58.787Z,101346.73
2023-04-03T23:38:25.632Z,101347.24
2023-04-03T23:40:52.089Z,101342.25
2023-04-03T23:43:18.471Z,101339.92
2023-04-03T23:45:45.123Z,101334.83
2023-04-03T23:48:11.496Z,101333.66
2023-04-03T23:50:38.264Z,101329.83
2023-04-03T23:53:04.795Z,101330.11
2023-04-03T23:55:31.123Z,101332.23
2023-04-03T23:57:57.449Z,101326.92
